x

North Nomad (46184) Wave Buoy

8:00pm - Fri 27th Mar 2015 All times are AKDT. -8 hours from GMT.

  • Sig Wave height 8.5ft
  • Peak Period 11s
  • Wind
    25mph, 29mph gusts
  • Sea Temp 45°f
  • Sea Pressure 1004.8mb
  • North Nomad
  • North Nomad

More Historic Weather Station data

Upgrade to MSW Pro to gain access to the past 30 days of data for over 8000 Wavebouys and Weather Stations around the globe.

Join Pro

Comparision Forecast

View Surf forecast
   
Fri 03/27 8:00pm 8.5ft 11s 25 29 mph 1004.8mb 45f -
7:00pm 8.5ft 10s 22 29 mph 1005.6mb 45f -
6:00pm 9ft 10s 22 27 mph 1006.7mb 45f -
5:00pm 8ft 10s 20 25 mph 1007.8mb 45f -
4:00pm 8ft 11s 18 20 mph 1008.8mb 45f -
3:00pm 8ft 10s 16 18 mph 1009.6mb 45f -
2:00pm 9ft 11s 18 22 mph 1010.1mb 45f -
1:00pm 8.5ft 11s 13 16 mph 1011mb 45f -
12:00pm 9ft 9s 13 16 mph 1011.2mb 45f -
11:00am 8.5ft 12s 13 16 mph 1011.5mb 45f -
10:00am 8.5ft 11s 11 13 mph 1011.6mb 45f -
9:00am 9ft 10s 11 13 mph 1011.5mb 45f -
8:00am 10ft 11s 11 16 mph 1011.4mb 45f -
7:00am 9ft 11s 11 13 mph 1011.5mb 45f -
6:00am 10ft 11s 13 16 mph 1011.5mb 45f 69f
5:00am 9ft 11s 11 16 mph 1011.7mb 45f 46f
4:00am 9ft 12s 11 13 mph 1011.7mb 45f 46f
3:00am 9.5ft 11s 11 13 mph 1012mb 45f 46f
2:00am 9.5ft 12s 9 11 mph 1012.2mb 45f 44f
1:00am 10ft 12s 11 13 mph 1012.2mb 45f 46f
12:00am 11ft 11s 13 18 mph 1012mb 45f 46f
Thu 03/26 11:00pm 11ft 13s 13 18 mph 1012mb 45f 46f
10:00pm 11ft 12s 13 16 mph 1011.9mb 45f 46f
9:00pm 12.5ft 11s 11 16 mph 1011.7mb 45f 46f
8:00pm 13.5ft 12s 13 18 mph 1011.4mb 45f 46f
7:00pm 13ft 11s 13 18 mph 1011mb 45f 92f
6:00pm 12.5ft 11s 13 16 mph 1011.1mb 45f 74f
5:00pm 13ft 11s 13 18 mph 1011mb 45f -
4:00pm 12.5ft 12s 13 16 mph 1010.8mb 45f -
3:00pm 13ft 12s 16 18 mph 1010.6mb 45f -
2:00pm 13ft 11s 16 20 mph 1010.6mb 45f -
1:00pm 11.5ft 12s 16 18 mph 1010.3mb 45f -
12:00pm 12.5ft 12s 13 16 mph 1009.9mb 45f -
11:00am 12ft 12s 16 20 mph 1009.5mb 45f -
10:00am 14.5ft 12s 13 18 mph 1008.8mb 45f -
9:00am 13ft 12s 18 22 mph 1007.7mb 45f -
8:00am 13ft 12s 18 20 mph 1007.1mb 45f -
7:00am 13ft 11s 18 22 mph 1006.1mb 45f -
6:00am 13ft 12s 20 25 mph 1005.3mb 45f -
5:00am 13ft 12s 20 27 mph 1004.8mb 45f -
4:00am 13ft 11s 18 22 mph 1003.9mb 45f -
3:00am 13ft 10s 18 25 mph 1003.4mb 45f -
2:00am 13ft 10s 20 27 mph 1002.7mb 45f -
1:00am 12.5ft 11s 20 25 mph 1001.7mb 45f -
12:00am 13ft 11s 18 22 mph 1000.9mb 45f -
Wed 03/25 11:00pm 12.5ft 11s 20 25 mph 999.4mb 45f -
10:00pm 13ft 11s 27 31 mph 998.7mb 45f -
9:00pm 12.5ft 10s 25 29 mph 998.7mb 45f -
8:00pm 13ft 10s 25 31 mph 998.5mb 45f -
7:00pm 12ft 10s 25 29 mph 998.2mb 45f -
6:00pm 11.5ft 10s 22 29 mph 998.2mb 45f -
5:00pm 12ft 9s 22 27 mph 998mb 45f -
4:00pm 12ft 9s 22 27 mph 997.9mb 45f -
3:00pm 11ft 9s 22 27 mph 997.7mb 45f -
2:00pm 10ft 9s 25 31 mph 997.1mb 45f -
1:00pm 10ft 10s 25 29 mph 997.3mb 45f -
12:00pm 10ft 10s 22 29 mph 997.1mb 45f -
11:00am 10ft 10s 22 27 mph 996.8mb 45f -
10:00am 11ft 9s 22 27 mph 996.3mb 45f -
9:00am 10ft 10s 22 27 mph 995.8mb 45f -
8:00am 10ft 10s 20 25 mph 995.4mb 45f 92f
7:00am 12ft 10s 18 22 mph 994.7mb 45f 76f
6:00am 14ft 10s 20 25 mph 993.9mb 45f 48f
5:00am 14ft 10s 25 31 mph 993.8mb 45f 46f
4:00am 15ft 10s 27 34 mph 994.2mb 45f 47f
3:00am  -   -  27
mph
995.4mb - 47f
2:00am 14.5ft 10s 27 36 mph 996.3mb 45f 47f
1:00am 16.5ft 10s 27 36 mph 996.6mb 45f 46f
12:00am 16.5ft 10s 29 40 mph 997.4mb 45f 46f
Tue 03/24 11:00pm 15.5ft 10s 34 43 mph 997.6mb 45f 46f
10:00pm 16.5ft 10s 34 40 mph 998.1mb 45f 46f
9:00pm 16.5ft 10s 34 43 mph 998.6mb 45f 46f
8:00pm 15.5ft 10s 38 47 mph 998.7mb 45f 46f
7:00pm 15ft 10s 36 45 mph 999.1mb 45f 45f
6:00pm 14.5ft 9s 36 45 mph 999.9mb 45f 45f
5:00pm 12.5ft 8s 36 45 mph 1000.7mb 45f 44f
4:00pm 11.5ft 8s 31 40 mph 1002.1mb 45f 45f
3:00pm 9.5ft 7s 29 36 mph 1003.1mb 45f 45f
2:00pm 8ft 6s 29 36 mph 1004.2mb 45f 47f
1:00pm 8ft 6s 29 36 mph 1005.1mb 45f 47f
12:00pm 7ft 6s 27 34 mph 1006.1mb 45f 47f
11:00am 6.5ft 5s 27 31 mph 1006.7mb 45f 47f
10:00am 6.5ft 11s 25 29 mph 1007.6mb 45f 47f
9:00am 6ft 11s 25 29 mph 1008mb 45f 46f
8:00am 6.5ft 11s 22 27 mph 1008.4mb 45f 46f
7:00am 6ft 10s 18 22 mph 1009.1mb 45f 46f
6:00am 6.5ft 11s 16 18 mph 1009.6mb 45f 46f